Senyomaru — JI3557 — position and weather

sailwx.info

Track history (hours):
 
Tides and Currents Weather Stations Pressure Air Temp Water Temp Dewpoint Dewpoint Depression Visibility Wind Speed Wind Dir Waves Ship Positions

Senyomaru

Last reported at 2016-Feb-10 07:31 UTC. Time now 2016-Feb-10 20:09 UTC.
Position N 34°36' E 134°55'.

Length 69 m; draft 4 m.

Type: Tanker. MMSI: 431300188.

Date/timePositionNaut miles runAvg speedWind from/ knotsBaromVisibWave heightAir tempDewpointWater temp
2016-Feb-10 07:31N 34°36' E 134°55'8 8.1
2016-Feb-10 06:33N 34°36' E 135°05'1211.8
2016-Feb-10 05:33N 34°34' E 135°19'5 5.5
2016-Feb-10 04:33N 34°33' E 135°26'0 0.0
2016-Feb-10 03:33N 34°33' E 135°26'0 0.0
2016-Feb-10 02:33N 34°33' E 135°26'0 0.0
2016-Feb-10 01:33N 34°33' E 135°26'0 0.0
2016-Feb-10 00:33N 34°33' E 135°26'0 0.0
2016-Feb-09 23:32N 34°33' E 135°26'1 1.2
2016-Feb-09 22:33N 34°33' E 135°24'1 0.3
2016-Feb-09 18:13N 34°34' E 135°23'0 0.0
2016-Feb-09 16:19N 34°34' E 135°23'0 0.0
2016-Feb-09 13:07N 34°34' E 135°23'0 0.0
2016-Feb-09 08:31N 34°34' E 135°23'0 0.0
2016-Feb-09 05:13N 34°34' E 135°23'0 0.0
2016-Feb-09 04:07N 34°34' E 135°23'0 0.0
2016-Feb-09 03:19N 34°34' E 135°23'0 0.0
2016-Feb-09 02:19N 34°34' E 135°23'0 0.0
2016-Feb-09 00:14N 34°34' E 135°23'0 0.1
2016-Feb-08 23:33N 34°34' E 135°23'0 0.0
2016-Feb-08 22:33N 34°34' E 135°23'0 0.0
2016-Feb-08 21:33N 34°34' E 135°23'0 0.0
2016-Feb-08 20:32N 34°34' E 135°23'0 0.0
2016-Feb-08 19:33N 34°34' E 135°23'0 0.0
2016-Feb-08 18:33N 34°34' E 135°23'0 0.0
2016-Feb-08 17:33N 34°34' E 135°23'0 0.0
2016-Feb-08 16:33N 34°34' E 135°23'0 0.0
2016-Feb-08 15:33N 34°34' E 135°23'0 0.0
2016-Feb-08 14:33N 34°34' E 135°23'0 0.0
2016-Feb-08 13:33N 34°34' E 135°23'0 0.0
2016-Feb-08 12:33N 34°34' E 135°23'0 0.0
2016-Feb-08 11:33N 34°34' E 135°23'0 0.1
2016-Feb-08 10:33N 34°34' E 135°23'1110.7
2016-Feb-08 09:33N 34°35' E 135°10'  
2016-Feb-02 23:26N 34°07' E 134°47'  
2016-Jan-31 12:25N 34°03' E 135°02'1112.9
2016-Jan-31 11:33N 34°14' E 135°03'1312.6
2016-Jan-31 10:33N 34°25' E 135°10'1312.7
2016-Jan-31 09:33N 34°33' E 135°22'3 3.1
2016-Jan-31 08:33N 34°33' E 135°26'0 0.0
2016-Jan-31 07:33N 34°33' E 135°26'  
Track history (hours):
 
Tides and Currents Weather Stations Pressure Air Temp Water Temp Dewpoint Dewpoint Depression Visibility Wind Speed Wind Dir Waves Ship Positions

Senyomaru

Last reported at 2016-Feb-10 07:31 UTC. Time now 2016-Feb-10 20:09 UTC.
Position N 34°36' E 134°55'.

Length 69 m; draft 4 m.

Type: Tanker. MMSI: 431300188.

Date/timePositionNaut miles runAvg speedWind from/ knotsBaromVisibWave heightAir tempDewpointWater temp
2016-Feb-10 07:31N 34°36' E 134°55'8 8.1
2016-Feb-10 06:33N 34°36' E 135°05'1211.8
2016-Feb-10 05:33N 34°34' E 135°19'5 5.5
2016-Feb-10 04:33N 34°33' E 135°26'0 0.0
2016-Feb-10 03:33N 34°33' E 135°26'0 0.0
2016-Feb-10 02:33N 34°33' E 135°26'0 0.0
2016-Feb-10 01:33N 34°33' E 135°26'0 0.0
2016-Feb-10 00:33N 34°33' E 135°26'0 0.0
2016-Feb-09 23:32N 34°33' E 135°26'1 1.2
2016-Feb-09 22:33N 34°33' E 135°24'1 0.3
2016-Feb-09 18:13N 34°34' E 135°23'0 0.0
2016-Feb-09 16:19N 34°34' E 135°23'0 0.0
2016-Feb-09 13:07N 34°34' E 135°23'0 0.0
2016-Feb-09 08:31N 34°34' E 135°23'0 0.0
2016-Feb-09 05:13N 34°34' E 135°23'0 0.0
2016-Feb-09 04:07N 34°34' E 135°23'0 0.0
2016-Feb-09 03:19N 34°34' E 135°23'0 0.0
2016-Feb-09 02:19N 34°34' E 135°23'0 0.0
2016-Feb-09 00:14N 34°34' E 135°23'0 0.1
2016-Feb-08 23:33N 34°34' E 135°23'0 0.0
2016-Feb-08 22:33N 34°34' E 135°23'0 0.0
2016-Feb-08 21:33N 34°34' E 135°23'0 0.0
2016-Feb-08 20:32N 34°34' E 135°23'0 0.0
2016-Feb-08 19:33N 34°34' E 135°23'0 0.0
2016-Feb-08 18:33N 34°34' E 135°23'0 0.0
2016-Feb-08 17:33N 34°34' E 135°23'0 0.0
2016-Feb-08 16:33N 34°34' E 135°23'0 0.0
2016-Feb-08 15:33N 34°34' E 135°23'0 0.0
2016-Feb-08 14:33N 34°34' E 135°23'0 0.0
2016-Feb-08 13:33N 34°34' E 135°23'0 0.0
2016-Feb-08 12:33N 34°34' E 135°23'0 0.0
2016-Feb-08 11:33N 34°34' E 135°23'0 0.1
2016-Feb-08 10:33N 34°34' E 135°23'1110.7
2016-Feb-08 09:33N 34°35' E 135°10'  
2016-Feb-02 23:26N 34°07' E 134°47'  
2016-Jan-31 12:25N 34°03' E 135°02'1112.9
2016-Jan-31 11:33N 34°14' E 135°03'1312.6
2016-Jan-31 10:33N 34°25' E 135°10'1312.7
2016-Jan-31 09:33N 34°33' E 135°22'3 3.1
2016-Jan-31 08:33N 34°33' E 135°26'0 0.0
2016-Jan-31 07:33N 34°33' E 135°26'  

Dump ship's entire track history